Terminal Aerodrome Forecast
Issued by NWS

Home | Current Version | Previous Version | Text Only | Print | Product List | Glossary On
Versions: 1 2 3 4 5 6 7 8 9 10 11 12 13 14 15 16 17 18 19
000
FTUS43 KUNR 251900 AAA
TAFGCC
TAF AMD
KGCC 251902Z 2519/2618 33016G26KT P6SM SCT006 OVC012
      TEMPO 2519/2523 2SM -SN BKN006
     FM260000 36012KT 4SM -SN OVC015
     FM260800 02006KT P6SM OVC015=

USA.gov is the U.S. government's official web portal to all federal, state and local government web resources and services.